sensor_id;sensor_type;location;lat;lon;timestamp;pressure;altitude;pressure_sealevel;temperature;humidity
32873;BME280;19224;52.462;16.898;2023-03-16T00:02:23;100614.83;;;2.05;100.00
32873;BME280;19224;52.462;16.898;2023-03-16T00:04:53;100621.50;;;2.04;100.00
32873;BME280;19224;52.462;16.898;2023-03-16T00:07:24;100621.91;;;2.09;100.00
32873;BME280;19224;52.462;16.898;2023-03-16T00:09:55;100625.45;;;2.07;100.00
32873;BME280;19224;52.462;16.898;2023-03-16T00:12:25;100636.06;;;2.11;100.00
32873;BME280;19224;52.462;16.898;2023-03-16T00:14:56;100636.92;;;2.13;100.00
32873;BME280;19224;52.462;16.898;2023-03-16T00:17:26;100636.98;;;2.07;100.00
32873;BME280;19224;52.462;16.898;2023-03-16T00:19:58;100641.41;;;2.02;100.00
32873;BME280;19224;52.462;16.898;2023-03-16T00:22:30;100639.64;;;2.00;100.00
32873;BME280;19224;52.462;16.898;2023-03-16T00:25:01;100645.86;;;2.02;100.00
32873;BME280;19224;52.462;16.898;2023-03-16T00:27:32;100642.74;;;2.02;100.00
32873;BME280;19224;52.462;16.898;2023-03-16T00:30:04;100641.44;;;1.98;100.00
32873;BME280;19224;52.462;16.898;2023-03-16T00:32:36;100643.20;;;1.99;100.00
32873;BME280;19224;52.462;16.898;2023-03-16T00:35:07;100645.02;;;1.88;100.00
32873;BME280;19224;52.462;16.898;2023-03-16T00:37:38;100642.37;;;1.89;100.00
32873;BME280;19224;52.462;16.898;2023-03-16T00:40:11;100644.14;;;1.92;100.00
32873;BME280;19224;52.462;16.898;2023-03-16T00:42:41;100641.94;;;1.88;100.00
32873;BME280;19224;52.462;16.898;2023-03-16T00:45:12;100645.50;;;1.83;100.00
32873;BME280;19224;52.462;16.898;2023-03-16T00:47:43;100643.28;;;1.84;100.00
32873;BME280;19224;52.462;16.898;2023-03-16T00:50:13;100638.88;;;1.80;100.00
32873;BME280;19224;52.462;16.898;2023-03-16T00:52:44;100642.84;;;1.83;100.00
32873;BME280;19224;52.462;16.898;2023-03-16T00:55:15;100633.98;;;1.82;100.00
32873;BME280;19224;52.462;16.898;2023-03-16T00:57:46;100638.88;;;1.77;100.00
32873;BME280;19224;52.462;16.898;2023-03-16T01:00:18;100643.31;;;1.75;100.00
32873;BME280;19224;52.462;16.898;2023-03-16T01:02:49;100649.95;;;1.76;100.00
32873;BME280;19224;52.462;16.898;2023-03-16T01:05:20;100660.17;;;1.68;100.00
32873;BME280;19224;52.462;16.898;2023-03-16T01:07:50;100659.27;;;1.67;100.00
32873;BME280;19224;52.462;16.898;2023-03-16T01:10:21;100657.95;;;1.63;100.00
32873;BME280;19224;52.462;16.898;2023-03-16T01:12:52;100661.98;;;1.57;100.00
32873;BME280;19224;52.462;16.898;2023-03-16T01:15:24;100666.80;;;1.65;100.00
32873;BME280;19224;52.462;16.898;2023-03-16T01:17:55;100668.57;;;1.69;100.00
32873;BME280;19224;52.462;16.898;2023-03-16T01:20:26;100667.70;;;1.61;100.00
32873;BME280;19224;52.462;16.898;2023-03-16T01:22:57;100672.13;;;1.57;100.00
32873;BME280;19224;52.462;16.898;2023-03-16T01:25:27;100670.80;;;1.62;100.00
32873;BME280;19224;52.462;16.898;2023-03-16T01:27:58;100673.88;;;1.63;100.00
32873;BME280;19224;52.462;16.898;2023-03-16T01:30:29;100676.14;;;1.56;100.00
32873;BME280;19224;52.462;16.898;2023-03-16T01:33:00;100673.92;;;1.51;100.00
32873;BME280;19224;52.462;16.898;2023-03-16T01:35:31;100685.84;;;1.54;100.00
32873;BME280;19224;52.462;16.898;2023-03-16T01:38:02;100682.77;;;1.50;100.00
32873;BME280;19224;52.462;16.898;2023-03-16T01:40:33;100674.80;;;1.48;100.00
32873;BME280;19224;52.462;16.898;2023-03-16T01:43:09;100680.13;;;1.47;100.00
32873;BME280;19224;52.462;16.898;2023-03-16T01:48:42;100687.61;;;1.55;100.00
32873;BME280;19224;52.462;16.898;2023-03-16T01:56:56;100685.88;;;1.48;100.00
32873;BME280;19224;52.462;16.898;2023-03-16T01:59:18;100689.41;;;1.50;100.00
32873;BME280;19224;52.462;16.898;2023-03-16T02:01:51;100688.52;;;1.57;100.00
32873;BME280;19224;52.462;16.898;2023-03-16T02:04:34;100688.92;;;1.64;100.00
32873;BME280;19224;52.462;16.898;2023-03-16T02:07:00;100688.49;;;1.64;100.00
32873;BME280;19224;52.462;16.898;2023-03-16T02:09:31;100693.77;;;1.66;100.00
32873;BME280;19224;52.462;16.898;2023-03-16T02:12:03;100693.78;;;1.67;100.00
32873;BME280;19224;52.462;16.898;2023-03-16T02:14:34;100694.19;;;1.76;100.00
32873;BME280;19224;52.462;16.898;2023-03-16T02:17:04;100696.86;;;1.79;100.00
32873;BME280;19224;52.462;16.898;2023-03-16T02:22:43;100697.28;;;1.78;100.00
32873;BME280;19224;52.462;16.898;2023-03-16T02:25:16;100697.69;;;1.87;100.00
32873;BME280;19224;52.462;16.898;2023-03-16T02:28:03;100697.23;;;1.89;100.00
32873;BME280;19224;52.462;16.898;2023-03-16T02:30:32;100699.91;;;1.87;100.00
32873;BME280;19224;52.462;16.898;2023-03-16T02:33:03;100706.08;;;1.94;100.00
32873;BME280;19224;52.462;16.898;2023-03-16T02:35:34;100703.45;;;1.85;100.00
32873;BME280;19224;52.462;16.898;2023-03-16T02:38:05;100708.31;;;1.87;100.00
32873;BME280;19224;52.462;16.898;2023-03-16T02:40:36;100704.81;;;1.79;100.00
32873;BME280;19224;52.462;16.898;2023-03-16T02:43:11;100707.88;;;1.81;100.00
32873;BME280;19224;52.462;16.898;2023-03-16T02:49:10;100712.31;;;1.85;100.00
32873;BME280;19224;52.462;16.898;2023-03-16T02:50:55;100708.78;;;1.80;100.00
32873;BME280;19224;52.462;16.898;2023-03-16T02:53:25;100714.08;;;1.85;100.00
32873;BME280;19224;52.462;16.898;2023-03-16T02:55:55;100714.99;;;1.76;100.00
32873;BME280;19224;52.462;16.898;2023-03-16T02:58:26;100713.68;;;1.72;100.00
32873;BME280;19224;52.462;16.898;2023-03-16T03:00:56;100711.87;;;1.77;100.00
32873;BME280;19224;52.462;16.898;2023-03-16T03:03:27;100718.97;;;1.81;100.00
32873;BME280;19224;52.462;16.898;2023-03-16T03:05:58;100719.42;;;1.73;100.00
32873;BME280;19224;52.462;16.898;2023-03-16T03:08:30;100719.45;;;1.67;100.00
32873;BME280;19224;52.462;16.898;2023-03-16T03:11:01;100715.44;;;1.71;100.00
32873;BME280;19224;52.462;16.898;2023-03-16T03:13:31;100713.26;;;1.68;100.00
32873;BME280;19224;52.462;16.898;2023-03-16T03:16:02;100715.00;;;1.72;100.00
32873;BME280;19224;52.462;16.898;2023-03-16T03:18:32;100716.33;;;1.70;100.00
32873;BME280;19224;52.462;16.898;2023-03-16T03:21:03;100723.88;;;1.68;100.00
32873;BME280;19224;52.462;16.898;2023-03-16T03:23:34;100722.11;;;1.67;100.00
32873;BME280;19224;52.462;16.898;2023-03-16T03:26:05;100723.42;;;1.64;100.00
32873;BME280;19224;52.462;16.898;2023-03-16T03:28:36;100728.73;;;1.64;100.00
32873;BME280;19224;52.462;16.898;2023-03-16T03:31:13;100733.60;;;1.63;100.00
32873;BME280;19224;52.462;16.898;2023-03-16T03:33:44;100730.95;;;1.63;100.00
32873;BME280;19224;52.462;16.898;2023-03-16T03:36:15;100731.84;;;1.62;100.00
32873;BME280;19224;52.462;16.898;2023-03-16T03:38:46;100731.85;;;1.59;100.00
32873;BME280;19224;52.462;16.898;2023-03-16T03:41:18;100734.07;;;1.58;100.00
32873;BME280;19224;52.462;16.898;2023-03-16T03:43:50;100727.44;;;1.58;100.00
32873;BME280;19224;52.462;16.898;2023-03-16T03:46:20;100730.97;;;1.61;100.00
32873;BME280;19224;52.462;16.898;2023-03-16T03:48:51;100733.62;;;1.60;100.00
32873;BME280;19224;52.462;16.898;2023-03-16T03:51:21;100733.17;;;1.57;100.00
32873;BME280;19224;52.462;16.898;2023-03-16T03:53:52;100741.13;;;1.57;100.00
32873;BME280;19224;52.462;16.898;2023-03-16T03:56:23;100743.80;;;1.59;100.00
32873;BME280;19224;52.462;16.898;2023-03-16T03:58:54;100746.45;;;1.59;100.00
32873;BME280;19224;52.462;16.898;2023-03-16T04:01:24;100746.02;;;1.58;100.00
32873;BME280;19224;52.462;16.898;2023-03-16T04:03:55;100741.14;;;1.53;100.00
32873;BME280;19224;52.462;16.898;2023-03-16T04:06:26;100745.14;;;1.51;100.00
32873;BME280;19224;52.462;16.898;2023-03-16T04:08:56;100739.38;;;1.43;100.00
32873;BME280;19224;52.462;16.898;2023-03-16T04:11:26;100742.47;;;1.44;100.00
32873;BME280;19224;52.462;16.898;2023-03-16T04:13:57;100745.15;;;1.42;100.00
32873;BME280;19224;52.462;16.898;2023-03-16T04:16:28;100737.64;;;1.45;100.00
32873;BME280;19224;52.462;16.898;2023-03-16T04:18:59;100740.29;;;1.45;100.00
32873;BME280;19224;52.462;16.898;2023-03-16T04:21:30;100743.80;;;1.44;100.00
32873;BME280;19224;52.462;16.898;2023-03-16T04:24:01;100745.15;;;1.42;100.00
32873;BME280;19224;52.462;16.898;2023-03-16T04:26:33;100748.24;;;1.39;100.00
32873;BME280;19224;52.462;16.898;2023-03-16T04:29:04;100751.32;;;1.38;100.00
32873;BME280;19224;52.462;16.898;2023-03-16T04:31:34;100752.66;;;1.35;100.00
32873;BME280;19224;52.462;16.898;2023-03-16T04:34:05;100756.65;;;1.37;100.00
32873;BME280;19224;52.462;16.898;2023-03-16T04:36:35;100756.20;;;1.34;100.00
32873;BME280;19224;52.462;16.898;2023-03-16T04:39:07;100752.20;;;1.33;100.00
32873;BME280;19224;52.462;16.898;2023-03-16T04:41:38;100757.98;;;1.29;100.00
32873;BME280;19224;52.462;16.898;2023-03-16T04:44:09;100759.73;;;1.29;100.00
32873;BME280;19224;52.462;16.898;2023-03-16T04:46:40;100760.17;;;1.30;100.00
32873;BME280;19224;52.462;16.898;2023-03-16T04:49:10;100763.70;;;1.27;100.00
32873;BME280;19224;52.462;16.898;2023-03-16T04:51:41;100764.61;;;1.28;100.00
32873;BME280;19224;52.462;16.898;2023-03-16T04:54:11;100763.29;;;1.25;100.00
32873;BME280;19224;52.462;16.898;2023-03-16T04:56:42;100767.27;;;1.28;100.00
32873;BME280;19224;52.462;16.898;2023-03-16T04:59:12;100765.94;;;1.25;100.00
32873;BME280;19224;52.462;16.898;2023-03-16T05:01:43;100764.17;;;1.27;100.00
32873;BME280;19224;52.462;16.898;2023-03-16T05:04:14;100761.05;;;1.27;100.00
32873;BME280;19224;52.462;16.898;2023-03-16T05:06:45;100764.61;;;1.16;100.00
32873;BME280;19224;52.462;16.898;2023-03-16T05:09:16;100770.78;;;1.21;100.00
32873;BME280;19224;52.462;16.898;2023-03-16T05:11:48;100775.67;;;1.14;100.00
32873;BME280;19224;52.462;16.898;2023-03-16T05:14:19;100778.74;;;1.13;100.00
32873;BME280;19224;52.462;16.898;2023-03-16T05:16:49;100769.91;;;1.19;100.00
32873;BME280;19224;52.462;16.898;2023-03-16T05:19:20;100777.00;;;1.23;100.00
32873;BME280;19224;52.462;16.898;2023-03-16T05:21:51;100770.36;;;1.21;100.00
32873;BME280;19224;52.462;16.898;2023-03-16T05:24:21;100782.30;;;1.21;100.00
32873;BME280;19224;52.462;16.898;2023-03-16T05:26:52;100779.20;;;1.23;100.00
32873;BME280;19224;52.462;16.898;2023-03-16T05:29:22;100782.75;;;1.24;100.00
32873;BME280;19224;52.462;16.898;2023-03-16T05:31:54;100786.72;;;1.27;100.00
32873;BME280;19224;52.462;16.898;2023-03-16T05:34:26;100786.25;;;1.27;100.00
32873;BME280;19224;52.462;16.898;2023-03-16T05:36:56;100784.94;;;1.29;100.00
32873;BME280;19224;52.462;16.898;2023-03-16T05:39:27;100782.73;;;1.30;100.00
32873;BME280;19224;52.462;16.898;2023-03-16T05:41:58;100784.49;;;1.31;100.00
32873;BME280;19224;52.462;16.898;2023-03-16T05:44:29;100792.01;;;1.30;100.00
32873;BME280;19224;52.462;16.898;2023-03-16T05:47:00;100790.25;;;1.33;100.00
32873;BME280;19224;52.462;16.898;2023-03-16T05:49:31;100791.12;;;1.35;100.00
32873;BME280;19224;52.462;16.898;2023-03-16T05:52:01;100784.05;;;1.37;100.00
32873;BME280;19224;52.462;16.898;2023-03-16T05:54:32;100791.58;;;1.42;100.00
32873;BME280;19224;52.462;16.898;2023-03-16T05:57:03;100790.23;;;1.44;100.00
32873;BME280;19224;52.462;16.898;2023-03-16T05:59:35;100799.08;;;1.47;100.00
32873;BME280;19224;52.462;16.898;2023-03-16T06:02:06;100796.87;;;1.50;100.00
32873;BME280;19224;52.462;16.898;2023-03-16T06:04:38;100792.88;;;1.53;100.00
32873;BME280;19224;52.462;16.898;2023-03-16T06:07:10;100798.20;;;1.54;100.00
32873;BME280;19224;52.462;16.898;2023-03-16T06:09:40;100797.75;;;1.56;100.00
32873;BME280;19224;52.462;16.898;2023-03-16T06:12:11;100803.94;;;1.58;100.00
32873;BME280;19224;52.462;16.898;2023-03-16T06:14:41;100802.19;;;1.59;100.00
32873;BME280;19224;52.462;16.898;2023-03-16T06:17:12;100797.74;;;1.59;100.00
32873;BME280;19224;52.462;16.898;2023-03-16T06:19:42;100813.25;;;1.57;100.00
32873;BME280;19224;52.462;16.898;2023-03-16T06:22:13;100811.46;;;1.62;100.00
32873;BME280;19224;52.462;16.898;2023-03-16T06:24:43;100803.94;;;1.67;100.00
32873;BME280;19224;52.462;16.898;2023-03-16T06:27:14;100812.77;;;1.74;100.00
32873;BME280;19224;52.462;16.898;2023-03-16T06:29:45;100807.91;;;1.76;100.00
32873;BME280;19224;52.462;16.898;2023-03-16T06:32:15;100805.69;;;1.82;100.00
32873;BME280;19224;52.462;16.898;2023-03-16T06:34:45;100799.03;;;1.83;100.00
32873;BME280;19224;52.462;16.898;2023-03-16T06:37:16;100813.63;;;1.94;100.00
32873;BME280;19224;52.462;16.898;2023-03-16T06:39:47;100812.31;;;1.95;100.00
32873;BME280;19224;52.462;16.898;2023-03-16T06:42:18;100810.95;;;2.01;100.00
32873;BME280;19224;52.462;16.898;2023-03-16T06:44:48;100810.05;;;2.05;100.00
32873;BME280;19224;52.462;16.898;2023-03-16T06:47:21;100806.95;;;2.12;100.00
32873;BME280;19224;52.462;16.898;2023-03-16T06:49:51;100814.44;;;2.20;100.00
32873;BME280;19224;52.462;16.898;2023-03-16T06:52:23;100813.13;;;2.23;100.00
32873;BME280;19224;52.462;16.898;2023-03-16T06:54:53;100821.09;;;2.23;100.00
32873;BME280;19224;52.462;16.898;2023-03-16T06:57:25;100815.72;;;2.31;100.00
32873;BME280;19224;52.462;16.898;2023-03-16T06:59:56;100826.80;;;2.35;100.00
32873;BME280;19224;52.462;16.898;2023-03-16T07:02:27;100829.47;;;2.31;100.00
32873;BME280;19224;52.462;16.898;2023-03-16T07:04:57;100828.54;;;2.45;100.00
32873;BME280;19224;52.462;16.898;2023-03-16T07:07:28;100832.92;;;2.52;100.00
32873;BME280;19224;52.462;16.898;2023-03-16T07:09:59;100833.33;;;2.64;100.00
32873;BME280;19224;52.462;16.898;2023-03-16T07:12:29;100843.50;;;2.64;100.00
32873;BME280;19224;52.462;16.898;2023-03-16T07:15:00;100841.27;;;2.65;100.00
32873;BME280;19224;52.462;16.898;2023-03-16T07:17:30;100836.41;;;2.69;100.00
32873;BME280;19224;52.462;16.898;2023-03-16T07:20:01;100840.37;;;2.72;100.00
32873;BME280;19224;52.462;16.898;2023-03-16T07:22:34;100841.64;;;2.86;100.00
32873;BME280;19224;52.462;16.898;2023-03-16T07:25:05;100838.45;;;3.01;100.00
32873;BME280;19224;52.462;16.898;2023-03-16T07:27:37;100852.59;;;3.06;100.00
32873;BME280;19224;52.462;16.898;2023-03-16T07:30:12;100851.29;;;3.03;100.00
32873;BME280;19224;52.462;16.898;2023-03-16T07:32:43;100853.08;;;3.01;100.00
32873;BME280;19224;52.462;16.898;2023-03-16T07:35:13;100855.73;;;3.00;100.00
32873;BME280;19224;52.462;16.898;2023-03-16T07:37:45;100861.86;;;3.14;100.00
32873;BME280;19224;52.462;16.898;2023-03-16T07:40:16;100856.15;;;3.05;100.00
32873;BME280;19224;52.462;16.898;2023-03-16T07:42:46;100862.78;;;3.11;100.00
32873;BME280;19224;52.462;16.898;2023-03-16T07:45:17;100864.84;;;3.31;100.00
32873;BME280;19224;52.462;16.898;2023-03-16T07:47:48;100861.78;;;3.27;100.00
32873;BME280;19224;52.462;16.898;2023-03-16T07:50:19;100864.49;;;3.18;100.00
32873;BME280;19224;52.462;16.898;2023-03-16T07:52:50;100868.45;;;3.21;100.00
32873;BME280;19224;52.462;16.898;2023-03-16T07:55:21;100868.00;;;3.28;100.00
32873;BME280;19224;52.462;16.898;2023-03-16T07:57:51;100872.31;;;3.45;100.00
32873;BME280;19224;52.462;16.898;2023-03-16T08:00:22;100873.58;;;3.53;100.00
32873;BME280;19224;52.462;16.898;2023-03-16T08:02:52;100874.81;;;3.63;100.00
32873;BME280;19224;52.462;16.898;2023-03-16T08:05:26;100884.63;;;3.58;100.00
32873;BME280;19224;52.462;16.898;2023-03-16T08:07:56;100888.66;;;3.54;100.00
32873;BME280;19224;52.462;16.898;2023-03-16T08:10:28;100900.95;;;3.71;100.00
32873;BME280;19224;52.462;16.898;2023-03-16T08:12:59;100895.16;;;3.73;100.00
32873;BME280;19224;52.462;16.898;2023-03-16T08:15:30;100894.66;;;3.81;100.00
32873;BME280;19224;52.462;16.898;2023-03-16T08:18:02;100902.62;;;3.83;100.00
32873;BME280;19224;52.462;16.898;2023-03-16T08:20:35;100894.98;;;3.96;100.00
32873;BME280;19224;52.462;16.898;2023-03-16T08:23:06;100900.23;;;4.03;100.00
32873;BME280;19224;52.462;16.898;2023-03-16T08:25:36;100895.27;;;4.10;100.00
32873;BME280;19224;52.462;16.898;2023-03-16T08:28:07;100915.17;;;4.19;100.00
32873;BME280;19224;52.462;16.898;2023-03-16T08:30:42;100896.91;;;4.25;100.00
32873;BME280;19224;52.462;16.898;2023-03-16T08:33:09;100904.78;;;4.38;100.00
32873;BME280;19224;52.462;16.898;2023-03-16T08:35:42;100894.87;;;4.49;100.00
32873;BME280;19224;52.462;16.898;2023-03-16T08:38:13;100905.94;;;4.53;100.00
32873;BME280;19224;52.462;16.898;2023-03-16T08:40:44;100908.26;;;4.45;100.00
32873;BME280;19224;52.462;16.898;2023-03-16T08:43:17;100910.97;;;4.40;100.00
32873;BME280;19224;52.462;16.898;2023-03-16T08:45:48;100908.34;;;4.37;100.00
32873;BME280;19224;52.462;16.898;2023-03-16T08:48:19;100910.97;;;4.40;100.00
32873;BME280;19224;52.462;16.898;2023-03-16T08:50:50;100920.22;;;4.48;100.00
32873;BME280;19224;52.462;16.898;2023-03-16T08:53:22;100926.70;;;4.23;100.00
32873;BME280;19224;52.462;16.898;2023-03-16T08:55:59;100928.03;;;4.24;100.00
32873;BME280;19224;52.462;16.898;2023-03-16T08:58:24;100935.16;;;4.22;100.00
32873;BME280;19224;52.462;16.898;2023-03-16T09:00:55;100934.48;;;3.96;100.00
32873;BME280;19224;52.462;16.898;2023-03-16T09:03:26;100933.65;;;3.88;100.00
32873;BME280;19224;52.462;16.898;2023-03-16T09:06:06;100939.38;;;3.97;100.00
32873;BME280;19224;52.462;16.898;2023-03-16T09:08:38;100938.87;;;4.03;100.00
32873;BME280;19224;52.462;16.898;2023-03-16T09:11:12;100947.70;;;4.11;100.00
32873;BME280;19224;52.462;16.898;2023-03-16T09:13:44;100945.97;;;4.03;100.00
32873;BME280;19224;52.462;16.898;2023-03-16T09:16:16;100946.84;;;4.08;100.00
32873;BME280;19224;52.462;16.898;2023-03-16T09:18:47;100947.62;;;4.17;100.00
32873;BME280;19224;52.462;16.898;2023-03-16T09:21:17;100956.41;;;4.28;100.00
32873;BME280;19224;52.462;16.898;2023-03-16T09:23:48;100954.50;;;4.42;100.00
32873;BME280;19224;52.462;16.898;2023-03-16T09:26:18;100958.57;;;4.36;100.00
32873;BME280;19224;52.462;16.898;2023-03-16T09:28:48;100946.15;;;4.32;100.00
32873;BME280;19224;52.462;16.898;2023-03-16T09:31:20;100960.81;;;4.34;100.00
32873;BME280;19224;52.462;16.898;2023-03-16T09:33:51;100952.77;;;4.40;100.00
32873;BME280;19224;52.462;16.898;2023-03-16T09:36:22;100952.34;;;4.37;100.00
32873;BME280;19224;52.462;16.898;2023-03-16T09:38:53;100957.16;;;4.45;100.00
32873;BME280;19224;52.462;16.898;2023-03-16T09:41:47;100951.70;;;4.54;100.00
32873;BME280;19224;52.462;16.898;2023-03-16T09:46:53;100956.52;;;4.60;100.00
32873;BME280;19224;52.462;16.898;2023-03-16T09:49:30;100960.34;;;4.80;100.00
32873;BME280;19224;52.462;16.898;2023-03-16T09:52:43;100952.77;;;4.79;100.00
32873;BME280;19224;52.462;16.898;2023-03-16T09:55:35;100951.58;;;4.66;100.00
32873;BME280;19224;52.462;16.898;2023-03-16T09:58:18;100945.67;;;4.77;100.00
32873;BME280;19224;52.462;16.898;2023-03-16T10:01:15;100965.48;;;4.95;100.00
32873;BME280;19224;52.462;16.898;2023-03-16T10:04:15;100957.70;;;5.14;100.00
32873;BME280;19224;52.462;16.898;2023-03-16T10:07:17;100957.55;;;5.24;100.00
32873;BME280;19224;52.462;16.898;2023-03-16T10:09:55;100958.14;;;5.15;100.00
32873;BME280;19224;52.462;16.898;2023-03-16T10:12:30;100962.73;;;5.02;100.00
32873;BME280;19224;52.462;16.898;2023-03-16T10:17:51;100967.53;;;5.12;100.00
32873;BME280;19224;52.462;16.898;2023-03-16T10:20:23;100964.27;;;5.23;100.00
32873;BME280;19224;52.462;16.898;2023-03-16T10:22:55;100968.77;;;5.18;100.00
32873;BME280;19224;52.462;16.898;2023-03-16T10:25:46;100965.56;;;5.26;100.00
32873;BME280;19224;52.462;16.898;2023-03-16T10:28:24;100970.16;;;5.13;100.00
32873;BME280;19224;52.462;16.898;2023-03-16T10:30:58;100962.14;;;5.15;100.00
32873;BME280;19224;52.462;16.898;2023-03-16T10:33:34;100962.89;;;5.26;100.00
32873;BME280;19224;52.462;16.898;2023-03-16T10:36:13;100957.75;;;5.45;100.00
32873;BME280;19224;52.462;16.898;2023-03-16T10:39:01;100985.27;;;5.48;99.47
32873;BME280;19224;52.462;16.898;2023-03-16T10:41:43;100970.46;;;5.57;97.88
32873;BME280;19224;52.462;16.898;2023-03-16T10:44:28;100960.14;;;5.63;97.76
32873;BME280;19224;52.462;16.898;2023-03-16T10:47:06;100965.27;;;5.81;96.22
32873;BME280;19224;52.462;16.898;2023-03-16T10:49:39;100968.73;;;5.86;93.58
32873;BME280;19224;52.462;16.898;2023-03-16T10:52:39;100964.02;;;5.73;95.19
32873;BME280;19224;52.462;16.898;2023-03-16T10:55:23;100975.47;;;5.83;94.33
32873;BME280;19224;52.462;16.898;2023-03-16T10:57:55;100975.86;;;5.53;94.11
32873;BME280;19224;52.462;16.898;2023-03-16T11:00:29;100974.45;;;5.59;93.57
32873;BME280;19224;52.462;16.898;2023-03-16T11:03:19;100976.66;;;5.59;93.76
32873;BME280;19224;52.462;16.898;2023-03-16T11:05:44;100972.71;;;5.55;93.27
32873;BME280;19224;52.462;16.898;2023-03-16T11:08:23;100970.04;;;5.55;93.05
32873;BME280;19224;52.462;16.898;2023-03-16T11:10:58;100966.39;;;5.62;91.98
32873;BME280;19224;52.462;16.898;2023-03-16T11:13:36;100971.66;;;5.68;93.15
32873;BME280;19224;52.462;16.898;2023-03-16T11:19:31;100967.41;;;6.14;90.09
32873;BME280;19224;52.462;16.898;2023-03-16T11:22:17;100974.59;;;6.10;86.15
32873;BME280;19224;52.462;16.898;2023-03-16T11:25:10;100969.25;;;6.09;85.03
32873;BME280;19224;52.462;16.898;2023-03-16T11:33:12;100963.89;;;6.12;82.97
32873;BME280;19224;52.462;16.898;2023-03-16T11:36:11;100969.59;;;6.16;83.28
32873;BME280;19224;52.462;16.898;2023-03-16T11:44:54;100972.86;;;6.33;82.01
32873;BME280;19224;52.462;16.898;2023-03-16T11:50:42;100967.07;;;6.33;80.97
32873;BME280;19224;52.462;16.898;2023-03-16T11:53:27;100964.37;;;6.60;78.57
32873;BME280;19224;52.462;16.898;2023-03-16T11:59:16;100952.99;;;6.72;78.21
32873;BME280;19224;52.462;16.898;2023-03-16T12:01:57;100955.05;;;6.80;77.68
32873;BME280;19224;52.462;16.898;2023-03-16T12:13:23;100963.84;;;7.08;77.63
32873;BME280;19224;52.462;16.898;2023-03-16T12:15:57;100963.55;;;7.23;75.07
32873;BME280;19224;52.462;16.898;2023-03-16T12:21:25;100974.27;;;6.78;71.71
32873;BME280;19224;52.462;16.898;2023-03-16T12:24:18;100957.11;;;6.90;74.68
32873;BME280;19224;52.462;16.898;2023-03-16T12:26:48;100965.31;;;6.81;76.57
32873;BME280;19224;52.462;16.898;2023-03-16T12:29:49;100967.00;;;6.85;76.49
32873;BME280;19224;52.462;16.898;2023-03-16T12:32:53;100965.80;;;6.79;74.58
32873;BME280;19224;52.462;16.898;2023-03-16T12:44:25;100964.27;;;6.88;72.70
32873;BME280;19224;52.462;16.898;2023-03-16T12:50:11;100980.09;;;6.99;69.24
32873;BME280;19224;52.462;16.898;2023-03-16T12:52:50;100958.91;;;6.88;69.53
32873;BME280;19224;52.462;16.898;2023-03-16T12:55:39;100955.86;;;6.85;70.98
32873;BME280;19224;52.462;16.898;2023-03-16T12:58:04;100974.02;;;6.92;70.71
32873;BME280;19224;52.462;16.898;2023-03-16T13:00:38;100952.53;;;6.95;71.27
32873;BME280;19224;52.462;16.898;2023-03-16T13:03:19;100961.50;;;7.14;72.12
32873;BME280;19224;52.462;16.898;2023-03-16T13:05:56;100957.31;;;7.21;72.12
32873;BME280;19224;52.462;16.898;2023-03-16T13:08:42;100948.73;;;7.28;72.23
32873;BME280;19224;52.462;16.898;2023-03-16T13:11:14;100954.07;;;7.48;70.00
32873;BME280;19224;52.462;16.898;2023-03-16T13:14:05;100944.22;;;7.69;69.15
32873;BME280;19224;52.462;16.898;2023-03-16T13:16:41;100952.09;;;7.75;67.15
32873;BME280;19224;52.462;16.898;2023-03-16T13:19:28;100969.78;;;7.65;64.84
32873;BME280;19224;52.462;16.898;2023-03-16T13:22:24;100973.90;;;7.60;66.18
32873;BME280;19224;52.462;16.898;2023-03-16T13:24:54;100971.72;;;7.58;65.91
32873;BME280;19224;52.462;16.898;2023-03-16T13:27:32;100967.70;;;7.58;66.05
32873;BME280;19224;52.462;16.898;2023-03-16T13:30:21;100967.20;;;7.60;65.31
32873;BME280;19224;52.462;16.898;2023-03-16T13:33:22;100965.56;;;7.74;63.76
32873;BME280;19224;52.462;16.898;2023-03-16T13:35:30;100975.02;;;7.50;63.13
32873;BME280;19224;52.462;16.898;2023-03-16T13:38:05;100970.77;;;7.40;65.64
32873;BME280;19224;52.462;16.898;2023-03-16T13:40:35;100972.70;;;7.73;65.33
32873;BME280;19224;52.462;16.898;2023-03-16T13:43:13;100975.69;;;7.80;62.97
32873;BME280;19224;52.462;16.898;2023-03-16T13:45:43;100970.14;;;8.07;63.40
32873;BME280;19224;52.462;16.898;2023-03-16T13:48:16;100966.01;;;8.11;61.01
32873;BME280;19224;52.462;16.898;2023-03-16T13:50:54;100962.97;;;8.26;62.46
32873;BME280;19224;52.462;16.898;2023-03-16T13:53:30;100962.34;;;8.50;58.99
32873;BME280;19224;52.462;16.898;2023-03-16T13:56:01;100968.22;;;8.98;59.03
32873;BME280;19224;52.462;16.898;2023-03-16T13:58:36;100960.52;;;9.16;55.91
32873;BME280;19224;52.462;16.898;2023-03-16T14:01:21;100964.91;;;9.04;55.52
32873;BME280;19224;52.462;16.898;2023-03-16T14:03:49;100961.06;;;8.81;55.33
32873;BME280;19224;52.462;16.898;2023-03-16T14:06:26;100962.87;;;8.96;56.88
32873;BME280;19224;52.462;16.898;2023-03-16T14:09:05;100959.94;;;9.05;56.54
32873;BME280;19224;52.462;16.898;2023-03-16T14:11:37;100964.22;;;8.96;56.30
32873;BME280;19224;52.462;16.898;2023-03-16T14:14:20;100959.61;;;8.85;56.59
32873;BME280;19224;52.462;16.898;2023-03-16T14:16:48;100953.83;;;9.00;56.76
32873;BME280;19224;52.462;16.898;2023-03-16T14:19:24;100957.22;;;9.37;55.78
32873;BME280;19224;52.462;16.898;2023-03-16T14:22:00;100957.80;;;9.18;55.98